Time;durP1;ratioP1;P1;durP2;ratioP2;P2;SDS_P1;SDS_P2;PMS_P1;PMS_P2;Temp;Humidity;BMP_temperature;BMP_pressure;BME280_temperature;BME280_humidity;BME280_pressure;Samples;Min_cycle;Max_cycle;Signal;HPM_P1;HPM_P2
2023/05/19 00:01:42;;;;;;;10.27;3.63;;;12.10;92.10;;;;;;4951764;28;20022;-76
2023/05/19 00:04:08;;;;;;;9.27;3.70;;;12.10;92.40;;;;;;4970109;28;20023;-77
2023/05/19 00:06:35;;;;;;;9.65;3.45;;;12.10;92.70;;;;;;4969733;28;20026;-79
2023/05/19 00:09:03;;;;;;;9.73;3.03;;;12.10;92.70;;;;;;4973356;28;20026;-77
2023/05/19 00:11:29;;;;;;;12.07;3.85;;;12.10;92.70;;;;;;4956190;28;20078;-77
2023/05/19 00:13:56;;;;;;;9.57;4.18;;;12.10;92.80;;;;;;4973737;28;20552;-75
2023/05/19 00:16:29;;;;;;;14.10;4.18;;;12.00;92.50;;;;;;4967989;28;20026;-77
2023/05/19 00:18:58;;;;;;;9.68;3.97;;;12.00;92.90;;;;;;4969280;28;20015;-76
2023/05/19 00:21:24;;;;;;;8.30;3.42;;;12.00;93.00;;;;;;4963442;28;20041;-76
2023/05/19 00:23:50;;;;;;;9.40;2.83;;;12.00;93.30;;;;;;4961164;28;20102;-78
2023/05/19 00:26:16;;;;;;;13.32;4.70;;;12.00;93.50;;;;;;4974249;28;20596;-77
2023/05/19 00:28:42;;;;;;;10.85;4.00;;;11.90;93.10;;;;;;4949978;28;20106;-77
2023/05/19 00:31:08;;;;;;;9.38;4.53;;;11.90;93.50;;;;;;4973175;28;20050;-76
2023/05/19 00:33:33;;;;;;;11.93;4.72;;;11.90;93.40;;;;;;4969695;28;20187;-76
2023/05/19 00:36:03;;;;;;;10.10;3.95;;;11.90;93.20;;;;;;4964630;28;20513;-76
2023/05/19 00:38:33;;;;;;;8.07;3.57;;;11.80;93.50;;;;;;4969739;28;20034;-78
2023/05/19 00:40:59;;;;;;;14.80;3.58;;;11.80;93.70;;;;;;4972347;28;20630;-77
2023/05/19 00:43:26;;;;;;;7.22;2.83;;;11.80;94.00;;;;;;4971181;28;20137;-77
2023/05/19 00:45:52;;;;;;;16.92;3.88;;;11.70;94.00;;;;;;4955435;28;20098;-78
2023/05/19 00:48:18;;;;;;;8.82;3.92;;;11.70;94.20;;;;;;4971977;28;20023;-76
2023/05/19 00:50:46;;;;;;;7.88;4.28;;;11.70;94.10;;;;;;4963356;28;20046;-77
2023/05/19 00:53:13;;;;;;;7.28;3.63;;;11.70;94.10;;;;;;4965863;28;20031;-77
2023/05/19 00:55:39;;;;;;;8.13;3.63;;;11.70;94.20;;;;;;4960177;28;20494;-77
2023/05/19 00:58:08;;;;;;;8.85;4.05;;;11.60;94.10;;;;;;4964483;28;20517;-76
2023/05/19 01:00:35;;;;;;;10.77;4.65;;;11.60;94.30;;;;;;4968842;28;20035;-76
2023/05/19 01:03:01;;;;;;;10.35;5.22;;;11.60;94.30;;;;;;4949096;29;20030;-76
2023/05/19 01:05:27;;;;;;;11.50;4.82;;;11.60;94.30;;;;;;4965926;28;20023;-77
2023/05/19 01:07:55;;;;;;;14.73;4.78;;;11.50;94.20;;;;;;4965036;28;20025;-76
2023/05/19 01:10:21;;;;;;;6.10;2.75;;;11.50;94.50;;;;;;4957425;28;20035;-78
2023/05/19 01:12:47;;;;;;;13.43;4.00;;;11.50;94.80;;;;;;4969355;28;20450;-77
2023/05/19 01:15:13;;;;;;;9.68;4.30;;;11.50;94.80;;;;;;4946540;28;20393;-77
2023/05/19 01:17:54;;;;;;;10.13;4.60;;;11.50;95.00;;;;;;4968798;28;20103;-78
2023/05/19 01:20:27;;;;;;;8.15;4.75;;;11.40;94.90;;;;;;4963373;28;20058;-77
2023/05/19 01:23:08;;;;;;;9.00;3.83;;;11.40;94.90;;;;;;4968540;28;20030;-79
2023/05/19 01:26:11;;;;;;;8.40;4.20;;;11.40;94.90;;;;;;4953842;28;20520;-77
2023/05/19 01:29:02;;;;;;;12.70;5.68;;;11.40;95.10;;;;;;4964162;28;20501;-76
2023/05/19 01:31:28;;;;;;;12.38;3.92;;;11.30;94.90;;;;;;4970441;28;20050;-77
2023/05/19 01:33:55;;;;;;;13.85;4.18;;;11.40;95.30;;;;;;4959501;28;20820;-76
2023/05/19 01:36:22;;;;;;;8.45;4.25;;;11.30;95.10;;;;;;4970748;28;20077;-77
2023/05/19 01:38:51;;;;;;;10.80;4.20;;;11.30;95.20;;;;;;4940132;28;20391;-77
2023/05/19 01:41:20;;;;;;;10.10;4.13;;;11.30;95.20;;;;;;4969071;28;20038;-76
2023/05/19 01:43:47;;;;;;;12.97;5.27;;;11.30;95.30;;;;;;4954047;28;20054;-76
2023/05/19 01:46:14;;;;;;;11.40;4.30;;;11.30;95.30;;;;;;4961079;28;20027;-76
2023/05/19 01:48:41;;;;;;;9.15;3.03;;;11.30;95.50;;;;;;4968301;28;20038;-76
2023/05/19 01:51:07;;;;;;;10.23;5.40;;;11.20;95.70;;;;;;4948831;28;20109;-76
2023/05/19 01:53:32;;;;;;;9.70;4.47;;;11.20;95.50;;;;;;4948685;28;20110;-76
2023/05/19 01:55:58;;;;;;;9.70;4.47;;;11.10;95.50;;;;;;4953802;28;20062;-76
2023/05/19 01:58:36;;;;;;;13.10;5.72;;;11.10;95.60;;;;;;4952587;28;20698;-75
2023/05/19 02:01:13;;;;;;;9.63;4.53;;;11.10;95.60;;;;;;4967516;28;20106;-77
2023/05/19 02:04:09;;;;;;;10.68;4.32;;;11.10;95.70;;;;;;4955207;28;20043;-76
2023/05/19 02:06:48;;;;;;;15.48;4.78;;;11.00;95.80;;;;;;4963869;28;20019;-77
2023/05/19 02:09:23;;;;;;;13.75;5.88;;;11.00;95.90;;;;;;4965986;28;20489;-76
2023/05/19 02:12:05;;;;;;;11.88;5.25;;;10.90;95.80;;;;;;4961856;28;20106;-76
2023/05/19 02:15:05;;;;;;;14.88;4.38;;;10.90;95.80;;;;;;4954758;28;20085;-77
2023/05/19 02:17:35;;;;;;;10.02;4.85;;;10.90;96.10;;;;;;4919581;28;20137;-77
2023/05/19 02:20:03;;;;;;;10.93;5.47;;;10.90;96.00;;;;;;4946157;28;20054;-77
2023/05/19 02:22:29;;;;;;;10.32;4.38;;;10.90;96.10;;;;;;4960057;28;20029;-77
2023/05/19 02:24:56;;;;;;;8.85;4.43;;;10.90;96.20;;;;;;4961658;28;20034;-76
2023/05/19 02:27:22;;;;;;;10.52;3.42;;;10.90;96.20;;;;;;4972318;28;20497;-77
2023/05/19 02:29:47;;;;;;;9.00;4.75;;;10.90;96.30;;;;;;4966290;28;20059;-77
2023/05/19 02:32:13;;;;;;;12.75;6.43;;;10.80;96.30;;;;;;4970900;28;20031;-76
2023/05/19 02:34:41;;;;;;;11.73;4.88;;;10.90;96.50;;;;;;4965618;28;20026;-76
2023/05/19 02:37:06;;;;;;;14.38;5.43;;;10.80;96.40;;;;;;4971915;28;20039;-77
2023/05/19 02:39:34;;;;;;;9.10;4.00;;;10.80;96.60;;;;;;4964865;28;20375;-76
2023/05/19 02:42:00;;;;;;;9.38;3.58;;;10.80;96.70;;;;;;4970980;28;20031;-77
2023/05/19 02:44:26;;;;;;;10.45;3.72;;;10.80;96.70;;;;;;4974825;28;20030;-77
2023/05/19 02:46:51;;;;;;;11.98;6.07;;;10.80;96.80;;;;;;4975551;28;20073;-76
2023/05/19 02:49:17;;;;;;;9.02;4.60;;;10.80;96.90;;;;;;4975916;28;20121;-77
2023/05/19 02:51:42;;;;;;;9.30;3.30;;;10.80;97.00;;;;;;4968109;28;20035;-77
2023/05/19 02:54:08;;;;;;;10.57;4.50;;;10.80;97.10;;;;;;4956825;28;20031;-77
2023/05/19 02:56:34;;;;;;;11.43;6.88;;;10.70;97.10;;;;;;4964046;28;20042;-77
2023/05/19 02:58:59;;;;;;;8.45;3.50;;;10.70;97.10;;;;;;4948813;28;20104;-77
2023/05/19 03:01:25;;;;;;;8.38;4.07;;;10.70;97.10;;;;;;4956963;28;20019;-76
2023/05/19 03:03:51;;;;;;;10.98;4.50;;;10.70;97.20;;;;;;4974618;28;20041;-77
2023/05/19 03:06:16;;;;;;;11.57;5.90;;;10.70;97.40;;;;;;4956824;28;20113;-77
2023/05/19 03:08:42;;;;;;;9.85;4.20;;;10.70;97.10;;;;;;4954510;28;20027;-77
2023/05/19 03:11:08;;;;;;;13.52;6.85;;;10.70;97.20;;;;;;4966222;28;20074;-77
2023/05/19 03:13:34;;;;;;;8.18;3.70;;;10.70;97.20;;;;;;4973454;28;20073;-78
2023/05/19 03:16:00;;;;;;;8.45;3.95;;;10.70;97.40;;;;;;4975446;28;20064;-77
2023/05/19 03:18:26;;;;;;;11.85;4.30;;;10.70;97.40;;;;;;4970650;28;20023;-76
2023/05/19 03:20:55;;;;;;;10.82;6.22;;;10.70;97.40;;;;;;4963398;28;20027;-77
2023/05/19 03:23:21;;;;;;;7.25;3.70;;;10.70;97.40;;;;;;4974182;28;20035;-77
2023/05/19 03:25:46;;;;;;;8.45;2.92;;;10.70;97.50;;;;;;4958208;28;20074;-77
2023/05/19 03:28:12;;;;;;;14.25;5.72;;;10.70;97.50;;;;;;4967674;28;20023;-77
2023/05/19 03:30:39;;;;;;;11.00;4.40;;;10.70;97.40;;;;;;4972816;28;20046;-76
2023/05/19 03:33:04;;;;;;;13.38;4.22;;;10.70;97.60;;;;;;4956541;28;20541;-74
2023/05/19 03:35:30;;;;;;;8.05;4.50;;;10.70;97.60;;;;;;4961484;28;20066;-77
2023/05/19 03:37:55;;;;;;;10.23;4.65;;;10.70;97.60;;;;;;4964824;28;20046;-75
2023/05/19 03:40:21;;;;;;;16.75;7.35;;;10.70;97.50;;;;;;4970662;28;20087;-77
2023/05/19 03:42:47;;;;;;;10.85;5.68;;;10.70;97.50;;;;;;4970899;28;20019;-77
2023/05/19 03:45:13;;;;;;;9.13;4.07;;;10.70;97.50;;;;;;4971082;28;20027;-76
2023/05/19 03:47:38;;;;;;;9.90;4.53;;;10.60;97.60;;;;;;4954077;28;20375;-78
2023/05/19 03:50:05;;;;;;;12.43;5.95;;;10.60;97.60;;;;;;4954617;28;20121;-77
2023/05/19 03:52:31;;;;;;;15.27;7.75;;;10.60;97.60;;;;;;4955690;28;20020;-77
2023/05/19 03:54:58;;;;;;;9.50;4.07;;;10.60;97.60;;;;;;4950507;28;20026;-77
2023/05/19 03:57:23;;;;;;;7.28;4.65;;;10.60;97.70;;;;;;4968233;28;20023;-76
2023/05/19 03:59:49;;;;;;;17.17;7.15;;;10.60;97.70;;;;;;4972088;28;20499;-77
2023/05/19 04:02:15;;;;;;;15.82;5.90;;;10.60;97.60;;;;;;4967543;28;20097;-76
2023/05/19 04:04:40;;;;;;;10.15;5.47;;;10.60;97.60;;;;;;4954353;28;20019;-77
2023/05/19 04:07:06;;;;;;;8.80;4.18;;;10.70;97.70;;;;;;4953985;28;20027;-79
2023/05/19 04:09:34;;;;;;;11.10;5.45;;;10.60;97.60;;;;;;4947429;28;20050;-78
2023/05/19 04:12:01;;;;;;;6.95;3.83;;;10.70;97.60;;;;;;4967314;28;20039;-77
2023/05/19 04:14:27;;;;;;;9.20;4.72;;;10.70;97.70;;;;;;4949575;28;20018;-77
2023/05/19 04:16:53;;;;;;;12.43;4.88;;;10.70;97.60;;;;;;4954949;28;20448;-77
2023/05/19 04:19:19;;;;;;;10.88;4.50;;;10.80;97.60;;;;;;4970554;28;20085;-77
2023/05/19 04:21:44;;;;;;;13.95;6.63;;;10.80;97.60;;;;;;4961432;28;20027;-76
2023/05/19 04:24:10;;;;;;;17.67;6.53;;;10.80;97.50;;;;;;4966449;28;20485;-78
2023/05/19 04:26:37;;;;;;;6.63;2.83;;;10.80;97.50;;;;;;4965018;28;20031;-77
2023/05/19 04:29:03;;;;;;;12.07;5.00;;;10.80;97.60;;;;;;4940064;28;20022;-76
2023/05/19 04:31:29;;;;;;;14.70;7.70;;;10.80;97.60;;;;;;4971321;28;20496;-76
2023/05/19 04:33:55;;;;;;;6.57;3.85;;;10.80;97.40;;;;;;4971444;28;20053;-77
2023/05/19 04:36:21;;;;;;;13.82;7.28;;;10.90;97.40;;;;;;4969249;28;20513;-77
2023/05/19 04:38:47;;;;;;;15.90;8.80;;;10.90;97.30;;;;;;4944100;28;20026;-76
2023/05/19 04:41:15;;;;;;;12.30;6.07;;;11.00;97.20;;;;;;4967019;28;20474;-76
2023/05/19 04:43:43;;;;;;;13.65;4.05;;;11.00;97.20;;;;;;4957662;28;20516;-76
2023/05/19 04:46:12;;;;;;;12.57;6.43;;;11.10;97.20;;;;;;4945612;28;20035;-77
2023/05/19 04:48:39;;;;;;;15.65;3.60;;;11.10;97.10;;;;;;4953400;28;20031;-77
2023/05/19 04:51:05;;;;;;;9.85;4.78;;;11.20;97.20;;;;;;4954628;28;20462;-77
2023/05/19 04:53:30;;;;;;;12.30;6.00;;;11.20;97.10;;;;;;4956537;28;20058;-77
2023/05/19 04:55:59;;;;;;;17.98;8.68;;;11.20;97.00;;;;;;4970372;28;20058;-76
2023/05/19 04:58:26;;;;;;;10.88;5.57;;;11.20;96.80;;;;;;4958977;28;20037;-79
2023/05/19 05:00:59;;;;;;;10.07;6.13;;;11.30;96.70;;;;;;4971176;28;20027;-76
2023/05/19 05:03:25;;;;;;;10.43;4.80;;;11.40;96.60;;;;;;4969289;28;20054;-77
2023/05/19 05:05:51;;;;;;;10.82;4.70;;;11.40;96.50;;;;;;4954350;28;20065;-77
2023/05/19 05:08:22;;;;;;;9.20;3.90;;;11.50;96.50;;;;;;4962230;28;20047;-77
2023/05/19 05:10:50;;;;;;;12.45;4.88;;;11.60;96.50;;;;;;4966074;28;20046;-77
2023/05/19 05:13:16;;;;;;;11.75;3.47;;;11.70;96.20;;;;;;4958202;28;20028;-76
2023/05/19 05:15:42;;;;;;;13.63;6.57;;;11.70;96.10;;;;;;4956719;28;20445;-77
2023/05/19 05:18:08;;;;;;;14.27;7.78;;;11.80;95.90;;;;;;4965715;28;20023;-77
2023/05/19 05:20:36;;;;;;;13.13;5.68;;;11.80;95.70;;;;;;4962761;28;20229;-78
2023/05/19 05:23:02;;;;;;;8.02;4.82;;;11.90;95.60;;;;;;4944836;28;20035;-76
2023/05/19 05:25:28;;;;;;;11.52;3.47;;;12.00;95.40;;;;;;4970754;28;20126;-76
2023/05/19 05:27:54;;;;;;;9.45;3.22;;;12.10;95.60;;;;;;4969873;28;20422;-76
2023/05/19 05:30:19;;;;;;;14.07;6.32;;;12.10;95.50;;;;;;4959141;28;20039;-77
2023/05/19 05:32:45;;;;;;;13.68;6.07;;;12.20;95.00;;;;;;4967074;28;20393;-76
2023/05/19 05:35:11;;;;;;;10.55;4.78;;;12.30;94.90;;;;;;4970579;28;20043;-79
2023/05/19 05:37:37;;;;;;;17.25;6.03;;;12.30;94.80;;;;;;4966031;28;20027;-76
2023/05/19 05:40:05;;;;;;;12.02;5.20;;;12.40;94.40;;;;;;4969151;28;20066;-77
2023/05/19 05:42:31;;;;;;;14.45;3.92;;;12.50;94.10;;;;;;4959303;28;20046;-77
2023/05/19 05:44:58;;;;;;;10.35;4.80;;;12.60;94.20;;;;;;4966388;28;20535;-77
2023/05/19 05:47:24;;;;;;;10.80;5.07;;;12.70;94.00;;;;;;4944965;28;20511;-76
2023/05/19 05:49:49;;;;;;;10.18;4.60;;;12.80;93.90;;;;;;4959260;28;20039;-78
2023/05/19 05:52:17;;;;;;;17.23;5.32;;;12.90;93.70;;;;;;4955980;28;20031;-77
2023/05/19 05:54:45;;;;;;;15.30;4.93;;;13.10;93.60;;;;;;4970310;28;20027;-78
2023/05/19 05:57:10;;;;;;;8.70;2.90;;;13.20;93.20;;;;;;4952523;28;20394;-76
2023/05/19 05:59:37;;;;;;;7.93;3.33;;;13.30;93.40;;;;;;4967422;28;20023;-77
2023/05/19 06:02:04;;;;;;;12.57;3.70;;;13.40;93.10;;;;;;4961811;28;20035;-79
2023/05/19 06:04:29;;;;;;;12.43;4.38;;;13.50;93.00;;;;;;4972675;28;20557;-78
2023/05/19 06:06:59;;;;;;;9.90;4.28;;;13.60;92.40;;;;;;4958225;28;20039;-77
2023/05/19 06:09:25;;;;;;;10.50;5.05;;;13.70;92.10;;;;;;4946106;28;20055;-77
2023/05/19 06:11:51;;;;;;;10.25;4.75;;;13.80;91.50;;;;;;4953144;28;20039;-77
2023/05/19 06:14:17;;;;;;;8.02;4.45;;;13.80;90.90;;;;;;4968756;28;20019;-78
2023/05/19 06:16:43;;;;;;;14.35;4.60;;;13.90;90.70;;;;;;4934995;28;20062;-77
2023/05/19 06:19:10;;;;;;;8.48;4.47;;;13.90;90.60;;;;;;4960822;28;20089;-79
2023/05/19 06:21:36;;;;;;;8.77;2.70;;;14.10;90.40;;;;;;4939902;28;20042;-78
2023/05/19 06:24:01;;;;;;;11.55;4.13;;;14.20;90.90;;;;;;4951462;28;20034;-77
2023/05/19 06:26:27;;;;;;;9.02;3.65;;;14.30;90.10;;;;;;4966376;28;20427;-77
2023/05/19 06:28:53;;;;;;;10.85;4.15;;;14.50;89.70;;;;;;4951408;28;20026;-77
2023/05/19 06:31:18;;;;;;;11.00;3.75;;;14.60;88.10;;;;;;4960865;28;20130;-76
2023/05/19 06:33:44;;;;;;;11.75;4.07;;;14.70;86.50;;;;;;4967840;28;20393;-77
2023/05/19 06:36:10;;;;;;;11.15;3.05;;;14.90;86.00;;;;;;4947978;28;20117;-77
2023/05/19 06:38:36;;;;;;;9.82;3.95;;;15.00;86.30;;;;;;4965617;28;20047;-77
2023/05/19 06:41:02;;;;;;;8.70;3.60;;;15.10;85.00;;;;;;4960029;28;20058;-78
2023/05/19 06:43:27;;;;;;;6.82;2.33;;;15.10;84.10;;;;;;4957142;28;20343;-76
2023/05/19 06:45:53;;;;;;;10.63;3.53;;;15.20;85.50;;;;;;4958258;28;20038;-78
2023/05/19 06:48:19;;;;;;;11.98;3.53;;;15.30;86.00;;;;;;4932859;28;20057;-76
2023/05/19 06:50:44;;;;;;;6.38;2.70;;;15.50;82.50;;;;;;4955032;28;20922;-77
2023/05/19 06:53:10;;;;;;;8.55;2.70;;;15.60;85.00;;;;;;4960089;28;20062;-77
2023/05/19 06:55:36;;;;;;;7.70;2.53;;;15.70;83.10;;;;;;4950003;28;20494;-77
2023/05/19 06:58:01;;;;;;;6.93;2.40;;;15.70;81.20;;;;;;4964898;28;20552;-77
2023/05/19 07:00:27;;;;;;;7.40;2.53;;;15.80;79.50;;;;;;4967273;28;20031;-77
2023/05/19 07:02:52;;;;;;;8.30;2.55;;;15.90;79.40;;;;;;4950099;28;20498;-78
2023/05/19 07:05:19;;;;;;;7.47;2.45;;;15.90;79.50;;;;;;4967435;28;20023;-77
2023/05/19 07:07:45;;;;;;;6.63;2.03;;;16.00;77.40;;;;;;4963125;28;20028;-77
2023/05/19 07:10:10;;;;;;;8.20;2.63;;;16.20;78.20;;;;;;4950419;28;20022;-80
2023/05/19 07:12:36;;;;;;;8.05;2.50;;;16.40;78.10;;;;;;4965942;28;20023;-79
2023/05/19 07:15:02;;;;;;;7.53;2.65;;;16.50;76.40;;;;;;4972106;28;20023;-77
2023/05/19 07:17:28;;;;;;;8.95;2.42;;;16.70;76.90;;;;;;4954908;28;20489;-77
2023/05/19 07:19:53;;;;;;;8.52;2.38;;;16.70;75.90;;;;;;4970298;28;20105;-79
2023/05/19 07:22:19;;;;;;;6.30;2.42;;;16.80;74.60;;;;;;4952201;28;20113;-78
2023/05/19 07:24:45;;;;;;;5.45;1.90;;;16.90;74.20;;;;;;4969229;28;20035;-78
2023/05/19 07:27:11;;;;;;;9.05;2.10;;;17.00;76.60;;;;;;4970931;28;20500;-77
2023/05/19 07:29:36;;;;;;;4.13;1.80;;;17.10;80.20;;;;;;4971944;28;20026;-77
2023/05/19 07:32:02;;;;;;;5.90;2.00;;;17.20;74.40;;;;;;4966429;28;20034;-77
2023/05/19 07:34:28;;;;;;;8.85;2.70;;;17.20;80.90;;;;;;4955215;28;20023;-77
2023/05/19 07:36:53;;;;;;;8.00;1.95;;;17.10;72.10;;;;;;4952509;28;20058;-79
2023/05/19 07:39:19;;;;;;;7.75;2.03;;;17.00;72.60;;;;;;4963719;28;20039;-77
2023/05/19 07:41:51;;;;;;;7.25;1.58;;;17.00;75.40;;;;;;4965883;28;20030;-77
2023/05/19 07:44:17;;;;;;;10.05;2.33;;;17.10;75.60;;;;;;4952066;28;20031;-77
2023/05/19 07:46:43;;;;;;;8.05;2.50;;;17.20;79.10;;;;;;4949143;28;20834;-77
2023/05/19 07:49:08;;;;;;;17.45;2.58;;;17.30;81.20;;;;;;4950613;28;20052;-76
2023/05/19 07:51:34;;;;;;;12.73;3.08;;;17.40;82.40;;;;;;4964558;28;20533;-78
2023/05/19 07:54:01;;;;;;;16.02;3.15;;;17.40;82.80;;;;;;4961275;28;20031;-77
2023/05/19 07:56:26;;;;;;;7.13;2.00;;;17.30;77.80;;;;;;4961147;28;20030;-77
2023/05/19 07:58:52;;;;;;;8.02;2.35;;;17.40;76.50;;;;;;4957741;28;20098;-77
2023/05/19 08:01:20;;;;;;;13.13;2.67;;;17.60;74.90;;;;;;4950176;28;20130;-77
2023/05/19 08:03:45;;;;;;;16.50;4.80;;;17.80;78.10;;;;;;4965286;28;20486;-77
2023/05/19 08:06:11;;;;;;;15.25;3.63;;;18.00;80.80;;;;;;4936819;28;20015;-76
2023/05/19 08:08:38;;;;;;;8.95;2.22;;;18.20;78.80;;;;;;4971835;28;20027;-77
2023/05/19 08:11:03;;;;;;;6.72;2.50;;;18.40;73.50;;;;;;4942013;28;20070;-77
2023/05/19 08:13:30;;;;;;;5.68;2.17;;;18.60;71.70;;;;;;4946740;28;20713;-77
2023/05/19 08:15:58;;;;;;;7.32;2.03;;;18.60;70.20;;;;;;4969328;28;20027;-78
2023/05/19 08:18:24;;;;;;;6.60;2.28;;;18.80;68.90;;;;;;4954450;28;20031;-75
2023/05/19 08:20:50;;;;;;;10.10;2.20;;;19.00;67.40;;;;;;4970420;28;20034;-76
2023/05/19 08:23:16;;;;;;;9.32;2.78;;;19.20;70.00;;;;;;4952656;28;20023;-78
2023/05/19 08:25:42;;;;;;;10.18;2.30;;;19.10;68.70;;;;;;4968800;28;20028;-78
2023/05/19 08:28:08;;;;;;;8.23;2.08;;;19.20;69.20;;;;;;4936167;29;20028;-76
2023/05/19 08:30:34;;;;;;;7.95;2.08;;;19.20;67.80;;;;;;4952711;28;20505;-77
2023/05/19 08:33:00;;;;;;;9.65;2.20;;;19.30;69.60;;;;;;4954348;28;20049;-76
2023/05/19 08:35:25;;;;;;;8.45;1.85;;;19.40;68.40;;;;;;4949409;29;20051;-77
2023/05/19 08:37:51;;;;;;;10.90;2.50;;;19.40;66.60;;;;;;4951588;29;20031;-77
2023/05/19 08:40:17;;;;;;;7.85;2.05;;;19.50;65.90;;;;;;4938821;29;20111;-77
2023/05/19 08:42:44;;;;;;;8.65;2.22;;;19.50;70.20;;;;;;4933593;29;20028;-78
2023/05/19 08:45:10;;;;;;;9.30;2.63;;;19.50;69.60;;;;;;4933338;29;20027;-77
2023/05/19 08:47:36;;;;;;;5.60;1.50;;;19.60;71.80;;;;;;4945347;29;20030;-75
2023/05/19 08:50:06;;;;;;;8.00;2.03;;;19.80;72.10;;;;;;4933935;29;20032;-76
2023/05/19 08:52:48;;;;;;;8.07;2.45;;;19.70;65.00;;;;;;4947415;29;20035;-77
2023/05/19 08:56:09;;;;;;;6.72;1.98;;;19.70;69.00;;;;;;4939078;29;20024;-79
2023/05/19 08:58:37;;;;;;;5.25;1.77;;;19.70;71.40;;;;;;4917537;29;20047;-76
2023/05/19 09:01:04;;;;;;;5.53;1.40;;;19.80;70.80;;;;;;4937362;29;20027;-79
2023/05/19 09:03:36;;;;;;;6.78;1.98;;;19.90;71.00;;;;;;4943707;29;20035;-79
2023/05/19 09:06:06;;;;;;;5.25;1.63;;;19.90;70.60;;;;;;4936349;29;20569;-79
2023/05/19 09:08:31;;;;;;;7.07;1.77;;;19.90;71.60;;;;;;4917466;29;20023;-78
2023/05/19 09:10:57;;;;;;;6.57;1.50;;;20.00;71.80;;;;;;4944772;29;20035;-77
2023/05/19 09:13:23;;;;;;;5.32;1.50;;;20.10;70.40;;;;;;4932940;29;20058;-79
2023/05/19 09:15:50;;;;;;;5.18;1.38;;;20.40;69.50;;;;;;4916711;29;20485;-80
2023/05/19 09:18:16;;;;;;;5.13;1.50;;;20.50;68.50;;;;;;4949447;29;20059;-79
2023/05/19 09:20:44;;;;;;;5.57;1.50;;;20.70;68.80;;;;;;4953328;29;20023;-79
2023/05/19 09:23:14;;;;;;;4.25;1.15;;;20.80;68.60;;;;;;4954373;29;20232;-78
2023/05/19 09:25:50;;;;;;;6.22;2.13;;;21.00;68.10;;;;;;4952759;29;20038;-78
2023/05/19 09:28:30;;;;;;;6.95;1.88;;;21.20;67.90;;;;;;4929414;29;20027;-79
2023/05/19 09:31:09;;;;;;;7.50;1.65;;;21.40;67.40;;;;;;4949488;29;20063;-76
2023/05/19 09:33:36;;;;;;;6.70;1.52;;;21.50;67.50;;;;;;4942000;29;20091;-80
2023/05/19 09:36:04;;;;;;;6.38;1.30;;;21.60;67.50;;;;;;4931710;29;20071;-80
2023/05/19 09:38:31;;;;;;;4.47;1.60;;;21.60;68.10;;;;;;4946166;29;20462;-79
2023/05/19 09:40:58;;;;;;;3.35;1.35;;;21.70;68.60;;;;;;4948039;29;20081;-79
2023/05/19 09:43:28;;;;;;;6.90;1.88;;;21.80;67.40;;;;;;4946864;29;20024;-78
2023/05/19 09:46:16;;;;;;;4.80;1.52;;;21.90;67.80;;;;;;4947319;29;20474;-81
2023/05/19 09:48:42;;;;;;;5.55;1.30;;;22.00;67.30;;;;;;4925207;29;20023;-80
2023/05/19 09:51:11;;;;;;;5.70;1.65;;;22.10;66.80;;;;;;4949288;29;20513;-78
2023/05/19 09:53:37;;;;;;;7.78;1.73;;;22.20;67.10;;;;;;4944828;29;20059;-78
2023/05/19 09:56:03;;;;;;;6.05;2.00;;;22.20;68.00;;;;;;4933261;29;20031;-79
2023/05/19 09:58:35;;;;;;;5.18;1.55;;;22.20;64.50;;;;;;4933093;29;20023;-80
2023/05/19 10:01:03;;;;;;;5.53;1.58;;;22.30;64.80;;;;;;4917251;29;20039;-77
2023/05/19 10:03:33;;;;;;;3.17;1.00;;;22.30;67.20;;;;;;4943622;29;20103;-78
2023/05/19 10:06:01;;;;;;;3.38;1.00;;;22.40;66.70;;;;;;4932814;29;20027;-79
2023/05/19 10:08:29;;;;;;;5.72;1.55;;;22.60;67.00;;;;;;4932164;29;20023;-79
2023/05/19 10:10:55;;;;;;;5.03;1.50;;;22.70;66.00;;;;;;4919629;29;20065;-79
2023/05/19 10:13:22;;;;;;;4.22;1.30;;;22.80;68.80;;;;;;4942696;29;20032;-79
2023/05/19 10:15:49;;;;;;;3.85;1.30;;;22.90;68.80;;;;;;4945469;29;20035;-79
2023/05/19 10:18:17;;;;;;;5.90;1.63;;;22.90;71.10;;;;;;4939398;29;20051;-79
2023/05/19 10:20:43;;;;;;;4.47;1.50;;;22.90;74.20;;;;;;4947898;29;20029;-78
2023/05/19 10:23:10;;;;;;;3.80;1.23;;;22.80;74.50;;;;;;4950696;29;20540;-79
2023/05/19 10:25:37;;;;;;;6.07;1.38;;;22.80;74.00;;;;;;4949666;29;20697;-79
2023/05/19 10:28:14;;;;;;;4.47;1.40;;;22.80;71.00;;;;;;4950850;29;20051;-79
2023/05/19 10:30:45;;;;;;;4.80;1.67;;;22.80;72.40;;;;;;4949278;29;20509;-80
2023/05/19 10:33:14;;;;;;;5.47;1.45;;;22.80;74.20;;;;;;4943034;29;20066;-78
2023/05/19 10:35:45;;;;;;;4.07;1.27;;;22.80;76.10;;;;;;4940016;28;20073;-80
2023/05/19 10:38:39;;;;;;;4.07;1.40;;;22.70;78.50;;;;;;4961995;28;20035;-80
2023/05/19 10:41:44;;;;;;;4.95;1.30;;;22.70;78.00;;;;;;4933081;29;20446;-80
2023/05/19 10:44:26;;;;;;;5.03;1.30;;;22.80;73.90;;;;;;4933452;29;20130;-81
2023/05/19 10:46:52;;;;;;;7.40;1.48;;;23.10;72.90;;;;;;4968123;28;20023;-80
2023/05/19 10:49:21;;;;;;;4.07;1.10;;;23.30;75.70;;;;;;4960558;28;20038;-79
2023/05/19 10:51:47;;;;;;;3.73;1.07;;;23.40;75.40;;;;;;4974368;28;20039;-79
2023/05/19 10:54:16;;;;;;;5.78;1.38;;;23.50;74.20;;;;;;4976079;28;20026;-81
2023/05/19 10:56:46;;;;;;;3.92;1.30;;;23.70;76.70;;;;;;4964544;28;20154;-81
2023/05/19 10:59:31;;;;;;;;;;;23.70;76.20;;;;;;4974895;28;20065;-79
2023/05/19 11:02:01;;;;;;;3.60;1.30;;;23.70;77.70;;;;;;4974950;28;20004;-77
2023/05/19 11:04:51;;;;;;;3.75;1.40;;;23.60;78.00;;;;;;4963886;28;20058;-78
2023/05/19 11:07:21;;;;;;;8.02;2.03;;;23.50;75.20;;;;;;4967464;28;20026;-78
2023/05/19 11:09:53;;;;;;;;;;;23.40;70.60;;;;;;4946689;28;20106;-78
2023/05/19 11:12:22;;;;;;;8.48;2.40;;;23.30;58.60;;;;;;4965908;28;19953;-79
2023/05/19 11:14:51;;;;;;;7.65;2.22;;;23.30;55.80;;;;;;4969164;28;20031;-76
2023/05/19 11:17:20;;;;;;;6.00;1.90;;;23.50;59.50;;;;;;4966683;28;20063;-79
2023/05/19 11:19:58;;;;;;;7.28;2.22;;;23.50;58.60;;;;;;4955444;28;20378;-79
2023/05/19 11:22:25;;;;;;;7.68;1.75;;;23.60;57.90;;;;;;4975292;28;20397;-79
2023/05/19 11:24:53;;;;;;;5.95;1.85;;;23.40;54.50;;;;;;4949605;28;20086;-80
2023/05/19 11:27:32;;;;;;;10.13;2.70;;;23.20;57.80;;;;;;4965431;28;20081;-78
2023/05/19 11:30:18;;;;;;;5.05;1.65;;;23.30;59.40;;;;;;4960432;28;20027;-79
2023/05/19 11:32:46;;;;;;;4.90;1.77;;;23.30;59.80;;;;;;4975489;28;20130;-79
2023/05/19 11:35:13;;;;;;;5.63;1.50;;;23.40;65.50;;;;;;4973095;28;20434;-81
2023/05/19 11:37:40;;;;;;;6.00;2.35;;;23.70;70.80;;;;;;4964888;28;20026;-78
2023/05/19 11:40:06;;;;;;;5.88;1.88;;;23.90;52.60;;;;;;4959419;28;20493;-78
2023/05/19 11:42:33;;;;;;;4.32;1.42;;;24.00;54.50;;;;;;4969969;28;20030;-79
2023/05/19 11:45:00;;;;;;;7.30;1.60;;;24.10;65.80;;;;;;4965894;28;20105;-79
2023/05/19 11:47:26;;;;;;;6.18;1.85;;;24.30;67.80;;;;;;4969595;28;20019;-80
2023/05/19 11:49:53;;;;;;;12.63;1.80;;;24.40;59.90;;;;;;4968017;28;20109;-78
2023/05/19 11:52:23;;;;;;;6.63;2.00;;;24.50;72.10;;;;;;4968215;28;20031;-78
2023/05/19 11:54:50;;;;;;;7.03;1.58;;;24.30;69.50;;;;;;4951337;28;20112;-79
2023/05/19 11:57:16;;;;;;;8.25;2.08;;;24.30;68.50;;;;;;4967656;28;20026;-77
2023/05/19 11:59:46;;;;;;;6.68;2.45;;;24.50;65.40;;;;;;4968568;28;20034;-79
2023/05/19 12:02:16;;;;;;;8.25;2.50;;;24.40;64.10;;;;;;4962673;28;20091;-81
2023/05/19 12:04:43;;;;;;;8.52;2.10;;;24.10;62.80;;;;;;4969344;28;20038;-80
2023/05/19 12:07:11;;;;;;;5.28;1.60;;;23.90;58.70;;;;;;4967616;28;20042;-80
2023/05/19 12:09:37;;;;;;;4.10;1.40;;;24.00;63.10;;;;;;4948649;28;20015;-81
2023/05/19 12:12:03;;;;;;;6.75;2.40;;;24.20;68.10;;;;;;4967134;28;20046;-79
2023/05/19 12:14:30;;;;;;;6.03;1.50;;;24.40;59.60;;;;;;4968648;28;20023;-80
2023/05/19 12:17:08;;;;;;;5.93;1.40;;;24.60;55.90;;;;;;4947121;28;20504;-78
2023/05/19 12:19:35;;;;;;;4.57;1.42;;;24.90;64.40;;;;;;4970059;28;20118;-80
2023/05/19 12:22:02;;;;;;;6.03;1.50;;;25.10;57.60;;;;;;4969955;28;20515;-83
2023/05/19 12:24:30;;;;;;;4.55;1.20;;;25.00;64.60;;;;;;4963722;28;20421;-82
2023/05/19 12:27:22;;;;;;;5.40;1.63;;;25.10;70.30;;;;;;4968532;28;20053;-77
2023/05/19 12:29:53;;;;;;;4.63;1.80;;;25.30;65.50;;;;;;4949485;28;20023;-78
2023/05/19 12:32:24;;;;;;;5.10;1.13;;;25.50;64.00;;;;;;4966181;28;20023;-78
2023/05/19 12:34:50;;;;;;;4.90;1.30;;;25.40;62.90;;;;;;4946016;28;20082;-79
2023/05/19 12:37:16;;;;;;;7.43;1.60;;;25.60;72.00;;;;;;4964773;28;20063;-79
2023/05/19 12:39:42;;;;;;;4.03;1.63;;;25.70;69.50;;;;;;4949993;28;20026;-78
2023/05/19 12:42:09;;;;;;;9.27;2.03;;;25.80;60.00;;;;;;4949720;28;20073;-78
2023/05/19 12:44:45;;;;;;;5.15;1.23;;;25.80;65.30;;;;;;4967919;28;20019;-78
2023/05/19 12:47:12;;;;;;;6.07;1.42;;;25.50;71.90;;;;;;4968288;28;20027;-79
2023/05/19 12:49:59;;;;;;;5.75;1.50;;;25.30;73.70;;;;;;4947361;28;20045;-78